Time;durP1;ratioP1;P1;durP2;ratioP2;P2;SDS_P1;SDS_P2;PMS_P1;PMS_P2;Temp;Humidity;BMP_temperature;BMP_pressure;BME280_temperature;BME280_humidity;BME280_pressure;Samples;Min_cycle;Max_cycle;Signal;HPM_P1;HPM_P2
2021/09/18 00:01:10;;;;;;;2.67;1.80;;;;;;;10.78;90.05;99292.53;2328575;68;20157;-80
2021/09/18 00:04:13;;;;;;;2.17;2.00;;;;;;;10.73;89.86;99295.16;2331008;69;20307;-80
2021/09/18 00:07:17;;;;;;;1.96;1.86;;;;;;;10.67;90.01;99297.78;2333063;69;20093;-79
2021/09/18 00:10:20;;;;;;;2.22;1.83;;;;;;;10.65;89.88;99288.28;2330307;69;20102;-80
2021/09/18 00:13:23;;;;;;;5.53;1.75;;;;;;;10.63;89.89;99292.63;2332521;69;20160;-79
2021/09/18 00:16:26;;;;;;;2.94;1.70;;;;;;;10.60;89.48;99296.13;2335570;69;20109;-79
2021/09/18 00:19:29;;;;;;;2.04;1.50;;;;;;;10.60;89.13;99301.31;2322131;69;20106;-80
2021/09/18 00:22:31;;;;;;;3.31;1.69;;;;;;;10.57;88.84;99291.78;2331329;68;20177;-80
2021/09/18 00:25:34;;;;;;;3.75;1.54;;;;;;;10.56;88.70;99292.66;2349229;68;20250;-79
2021/09/18 00:28:38;;;;;;;3.24;1.50;;;;;;;10.51;88.56;99291.81;2335795;69;20209;-80
2021/09/18 00:31:40;;;;;;;1.67;1.50;;;;;;;10.50;88.80;99297.03;2326094;69;20165;-80
2021/09/18 00:34:43;;;;;;;2.05;1.45;;;;;;;10.43;88.91;99285.84;2330003;69;20164;-79
2021/09/18 00:37:47;;;;;;;1.52;1.42;;;;;;;10.41;88.97;99284.09;2336411;69;20150;-80
2021/09/18 00:40:49;;;;;;;3.06;1.40;;;;;;;10.36;88.98;99280.66;2333090;69;20161;-80
2021/09/18 00:43:57;;;;;;;2.96;1.86;;;;;;;10.32;89.07;99278.97;2332992;69;20092;-79
2021/09/18 00:46:59;;;;;;;2.92;2.10;;;;;;;10.29;89.11;99278.13;2338571;68;20146;-79
2021/09/18 00:50:03;;;;;;;3.34;1.49;;;;;;;10.27;89.14;99279.84;2328829;69;20100;-80
2021/09/18 00:53:06;;;;;;;3.13;1.49;;;;;;;10.21;89.15;99281.59;2332618;69;20108;-80
2021/09/18 00:56:09;;;;;;;2.00;1.64;;;;;;;10.19;89.32;99284.16;2351207;68;20152;-80
2021/09/18 00:59:13;;;;;;;2.89;1.40;;;;;;;10.18;89.49;99279.84;2333843;69;20105;-79
2021/09/18 01:02:15;;;;;;;1.88;1.61;;;;;;;10.18;89.40;99282.44;2337805;66;24692;-79
2021/09/18 01:05:19;;;;;;;3.25;1.40;;;;;;;10.18;89.38;99281.59;2340805;69;20175;-80
2021/09/18 01:08:22;;;;;;;2.31;1.63;;;;;;;10.16;89.33;99279.00;2339389;69;20092;-79
2021/09/18 01:11:25;;;;;;;1.96;1.81;;;;;;;10.10;89.28;99279.03;2340097;69;20167;-80
2021/09/18 01:14:28;;;;;;;3.33;1.70;;;;;;;10.03;89.21;99287.69;2336719;68;20228;-79
2021/09/18 01:21:30;;;;;;;3.74;1.76;;;;;;;10.03;89.39;99290.28;2340522;69;20092;-80
2021/09/18 01:24:34;;;;;;;4.32;1.56;;;;;;;9.99;89.28;99280.81;2345299;69;20104;-79
2021/09/18 01:27:36;;;;;;;4.14;1.83;;;;;;;9.99;89.36;99284.25;2335620;69;20160;-80
2021/09/18 01:30:39;;;;;;;3.29;1.54;;;;;;;9.94;89.36;99277.38;2344973;69;20113;-79
2021/09/18 01:33:41;;;;;;;3.58;1.59;;;;;;;9.84;89.40;99275.66;2341151;69;20101;-79
2021/09/18 01:36:45;;;;;;;3.39;1.86;;;;;;;9.84;89.61;99279.13;2339454;69;20093;-79
2021/09/18 01:39:48;;;;;;;2.10;1.54;;;;;;;9.83;89.54;99276.53;2335116;69;20160;-80
2021/09/18 01:42:51;;;;;;;1.84;1.65;;;;;;;9.83;89.46;99281.72;2339213;69;20105;-80
2021/09/18 01:45:54;;;;;;;3.34;1.77;;;;;;;9.80;89.35;99284.31;2336900;69;20172;-80
2021/09/18 01:48:56;;;;;;;1.73;1.63;;;;;;;9.75;89.37;99276.56;2350716;69;20127;-79
2021/09/18 01:52:07;;;;;;;1.92;1.67;;;;;;;9.74;89.76;99279.16;2344997;68;20152;-80
2021/09/18 01:55:10;;;;;;;4.68;1.85;;;;;;;9.74;89.76;99269.66;2338183;69;20104;-79
2021/09/18 01:58:13;;;;;;;1.91;1.56;;;;;;;9.74;89.65;99276.56;2342772;69;20156;-79
2021/09/18 02:01:16;;;;;;;3.35;1.56;;;;;;;9.69;89.46;99274.88;2333169;69;20168;-80
2021/09/18 02:04:18;;;;;;;2.24;1.50;;;;;;;9.65;89.54;99282.63;2335625;68;20101;-80
2021/09/18 02:07:21;;;;;;;5.79;1.69;;;;;;;9.63;89.52;99280.03;2344643;69;20109;-79
2021/09/18 02:10:27;;;;;;;2.51;1.75;;;;;;;9.59;89.46;99267.97;2329332;69;20168;-79
2021/09/18 02:13:30;;;;;;;3.63;1.50;;;;;;;9.59;89.46;99273.16;2325189;69;20125;-80
2021/09/18 02:16:33;;;;;;;4.79;1.59;;;;;;;9.55;89.27;99268.84;2330168;69;20142;-80
2021/09/18 02:19:36;;;;;;;5.30;1.56;;;;;;;9.53;89.18;99259.34;2334958;69;20117;-79
2021/09/18 02:22:39;;;;;;;2.00;1.48;;;;;;;9.51;89.14;99261.91;2340242;69;20104;-80
2021/09/18 02:25:43;;;;;;;5.32;1.91;;;;;;;9.47;89.25;99259.34;2336151;69;20109;-80
2021/09/18 02:28:45;;;;;;;2.54;1.42;;;;;;;9.45;89.26;99263.69;2333335;69;20105;-80
2021/09/18 02:31:48;;;;;;;3.09;1.73;;;;;;;9.43;89.21;99257.63;2340499;69;20172;-80
2021/09/18 02:34:50;;;;;;;3.47;1.76;;;;;;;9.35;89.22;99255.94;2331871;69;20096;-80
2021/09/18 02:37:55;;;;;;;2.22;1.89;;;;;;;9.30;89.25;99264.56;2325448;69;20101;-79
2021/09/18 02:40:58;;;;;;;4.10;1.98;;;;;;;9.29;89.69;99263.69;2332806;69;20181;-80
2021/09/18 02:44:01;;;;;;;2.64;1.90;;;;;;;9.33;89.71;99260.22;2350132;69;20109;-80
2021/09/18 02:47:04;;;;;;;2.81;1.95;;;;;;;9.35;89.60;99262.84;2338015;66;24980;-80
2021/09/18 02:50:09;;;;;;;2.71;1.80;;;;;;;9.36;89.59;99256.78;2336406;69;20148;-80
2021/09/18 02:53:12;;;;;;;2.64;1.81;;;;;;;9.34;89.58;99256.81;2340521;69;20104;-80
2021/09/18 02:56:14;;;;;;;4.30;1.75;;;;;;;9.31;89.71;99261.97;2335586;69;20104;-80
2021/09/18 02:59:17;;;;;;;1.81;1.64;;;;;;;9.24;89.42;99262.84;2328358;69;20167;-80
2021/09/18 03:02:20;;;;;;;5.49;2.45;;;;;;;9.19;89.69;99255.97;2332110;66;38600;-79
2021/09/18 03:05:23;;;;;;;4.35;2.00;;;;;;;9.19;89.85;99249.03;2334994;69;20122;-79
2021/09/18 03:08:26;;;;;;;4.15;2.26;;;;;;;9.17;89.87;99253.38;2335533;69;20112;-79
2021/09/18 03:11:28;;;;;;;2.09;1.89;;;;;;;9.19;89.91;99253.38;2330954;69;20195;-79
2021/09/18 03:14:31;;;;;;;4.31;2.84;;;;;;;9.20;89.94;99248.19;2335276;69;20105;-80
2021/09/18 03:17:33;;;;;;;3.65;2.16;;;;;;;9.20;90.07;99244.72;2325552;66;27174;-80
2021/09/18 03:20:36;;;;;;;3.90;2.61;;;;;;;9.20;90.17;99248.19;2335209;69;20105;-80
2021/09/18 03:23:39;;;;;;;3.17;2.24;;;;;;;9.20;89.95;99247.31;2340294;68;20229;-80
2021/09/18 03:26:43;;;;;;;3.38;2.71;;;;;;;9.18;89.51;99243.88;2322450;69;20146;-80
2021/09/18 03:29:46;;;;;;;2.65;2.22;;;;;;;9.15;89.36;99242.13;2330825;69;20105;-81
2021/09/18 03:32:48;;;;;;;4.19;2.33;;;;;;;9.08;89.27;99250.78;2338980;66;42130;-79
2021/09/18 03:35:51;;;;;;;5.04;2.65;;;;;;;9.05;89.38;99251.63;2331417;68;20250;-79
2021/09/18 03:38:55;;;;;;;2.64;2.44;;;;;;;9.03;89.39;99245.59;2351069;68;20158;-80
2021/09/18 03:41:57;;;;;;;2.66;2.46;;;;;;;9.01;89.22;99255.09;2349251;69;20122;-79
2021/09/18 03:45:00;;;;;;;2.60;2.38;;;;;;;9.00;89.28;99255.97;2339377;68;20164;-80
2021/09/18 03:48:03;;;;;;;4.13;2.44;;;;;;;8.95;89.28;99260.25;2350993;66;39214;-80
2021/09/18 03:51:06;;;;;;;4.79;2.49;;;;;;;8.92;89.57;99254.22;2335237;68;20125;-80
2021/09/18 03:54:09;;;;;;;2.08;1.91;;;;;;;8.92;89.47;99260.28;2335866;69;20136;-80
2021/09/18 03:57:11;;;;;;;2.44;1.81;;;;;;;8.89;89.35;99254.22;2348175;68;20156;-79
2021/09/18 04:00:14;;;;;;;3.09;2.81;;;;;;;8.84;89.13;99259.41;2334345;69;20275;-79
2021/09/18 04:03:17;;;;;;;2.47;2.33;;;;;;;8.80;89.30;99252.53;2332948;69;20131;-80
2021/09/18 04:06:20;;;;;;;2.88;2.16;;;;;;;8.79;89.46;99264.56;2345661;69;20205;-80
2021/09/18 04:09:23;;;;;;;5.30;2.61;;;;;;;8.77;89.46;99261.13;2338071;69;20097;-79
2021/09/18 04:12:25;;;;;;;2.44;2.19;;;;;;;8.74;89.58;99258.53;2335482;69;20374;-79
2021/09/18 04:15:28;;;;;;;5.84;2.30;;;;;;;8.74;89.48;99271.47;2340715;69;20164;-79
2021/09/18 04:18:31;;;;;;;3.71;2.39;;;;;;;8.73;89.16;99266.31;2338406;69;20142;-81
2021/09/18 04:21:33;;;;;;;2.42;2.22;;;;;;;8.70;88.95;99267.16;2338934;69;20164;-80
2021/09/18 04:24:36;;;;;;;2.90;2.50;;;;;;;8.68;88.87;99268.91;2352480;69;20109;-79
2021/09/18 04:27:40;;;;;;;5.09;2.51;;;;;;;8.65;88.84;99271.47;2343945;69;20241;-80
2021/09/18 04:30:42;;;;;;;4.55;3.00;;;;;;;8.64;88.86;99271.47;2333334;69;20153;-79
2021/09/18 04:33:46;;;;;;;2.59;2.39;;;;;;;8.60;88.85;99268.00;2343703;69;20230;-79
2021/09/18 04:36:48;;;;;;;9.69;2.70;;;;;;;8.57;88.79;99274.91;2328742;69;20296;-79
2021/09/18 04:39:51;;;;;;;3.84;2.17;;;;;;;8.55;88.67;99269.72;2329454;69;20163;-80
2021/09/18 04:42:53;;;;;;;3.29;2.64;;;;;;;8.53;88.53;99271.47;2328325;69;20157;-79
2021/09/18 04:45:56;;;;;;;3.69;2.53;;;;;;;8.48;88.67;99268.00;2333329;69;20238;-80
2021/09/18 04:48:59;;;;;;;4.88;2.53;;;;;;;8.44;89.01;99272.31;2330886;68;20272;-79
2021/09/18 04:52:02;;;;;;;2.83;2.55;;;;;;;8.45;89.13;99276.63;2333873;69;20251;-79
2021/09/18 04:55:05;;;;;;;2.45;2.25;;;;;;;8.45;89.26;99262.81;2329993;69;20294;-79
2021/09/18 04:58:08;;;;;;;4.26;2.24;;;;;;;8.42;89.46;99262.78;2329839;69;20123;-79
2021/09/18 05:01:10;;;;;;;4.01;2.36;;;;;;;8.43;89.57;99267.97;2331260;69;20270;-79
2021/09/18 05:04:13;;;;;;;2.60;2.44;;;;;;;8.44;89.65;99266.28;2324957;69;20123;-79
2021/09/18 05:07:16;;;;;;;2.66;2.09;;;;;;;8.43;89.71;99265.38;2324527;69;20255;-79
2021/09/18 05:10:19;;;;;;;2.99;1.64;;;;;;;8.42;89.83;99270.56;2334693;69;20247;-79
2021/09/18 05:13:22;;;;;;;2.01;1.91;;;;;;;8.42;89.84;99270.56;2324871;69;20367;-80
2021/09/18 05:16:25;;;;;;;2.49;2.06;;;;;;;8.40;89.91;99275.72;2340700;69;20257;-78
2021/09/18 05:19:28;;;;;;;4.78;2.28;;;;;;;8.39;89.87;99279.19;2324227;69;20243;-78
2021/09/18 05:22:30;;;;;;;3.33;2.28;;;;;;;8.40;89.86;99280.91;2329141;68;20250;-79
2021/09/18 05:25:33;;;;;;;2.14;2.04;;;;;;;8.39;89.75;99279.19;2331710;69;20415;-79
2021/09/18 05:28:37;;;;;;;2.44;2.24;;;;;;;8.39;89.82;99278.31;2334164;69;20298;-79
2021/09/18 05:31:39;;;;;;;2.24;2.04;;;;;;;8.40;89.86;99290.38;2343778;68;20142;-79
2021/09/18 05:34:42;;;;;;;2.79;1.91;;;;;;;8.38;90.00;99287.81;2335357;68;20249;-80
2021/09/18 05:37:45;;;;;;;3.61;2.42;;;;;;;8.41;90.01;99287.81;2349248;69;20245;-81
2021/09/18 05:40:47;;;;;;;2.80;2.14;;;;;;;8.46;89.88;99288.69;2338864;69;20160;-80
2021/09/18 05:43:50;;;;;;;2.47;2.26;;;;;;;8.51;89.87;99291.28;2337269;69;20299;-79
2021/09/18 05:46:52;;;;;;;6.61;2.30;;;;;;;8.57;89.83;99286.13;2348612;69;20254;-80
2021/09/18 05:49:56;;;;;;;3.71;2.24;;;;;;;8.62;89.88;99288.75;2335271;69;20464;-79
2021/09/18 05:52:58;;;;;;;2.85;2.58;;;;;;;8.66;90.06;99291.31;2335088;69;20100;-80
2021/09/18 05:56:01;;;;;;;5.46;2.90;;;;;;;8.70;90.21;99285.28;2362850;69;20273;-81
2021/09/18 05:59:25;;;;;;;3.56;2.80;;;;;;;8.76;90.34;99284.41;2337837;69;20104;-84
2021/09/18 06:03:41;;;;;;;7.19;2.91;;;;;;;8.87;90.17;99289.63;2326572;69;20096;-84
2021/09/18 06:07:53;;;;;;;3.97;3.08;;;;;;;9.00;90.03;99291.38;2344517;68;20272;-85
2021/09/18 06:16:26;;;;;;;4.45;2.86;;;;;;;9.21;89.73;99296.53;2318588;69;20130;-84
2021/09/18 06:19:42;;;;;;;3.22;2.92;;;;;;;9.44;89.60;99303.41;2319980;69;20150;-84
2021/09/18 06:22:58;;;;;;;2.61;2.42;;;;;;;9.65;89.33;99291.28;2303918;74;20219;-84
2021/09/18 06:26:08;;;;;;;4.26;2.50;;;;;;;10.03;88.70;99292.88;2309190;69;20319;-85
2021/09/18 06:29:12;;;;;;;2.96;2.63;;;;;;;10.46;86.95;99300.53;2301510;70;20114;-85
2021/09/18 06:32:15;;;;;;;2.88;2.58;;;;;;;10.65;86.49;99298.69;2318740;69;20159;-83
2021/09/18 06:35:25;;;;;;;3.09;2.64;;;;;;;10.97;86.01;99308.84;2302698;69;20185;-84
2021/09/18 06:38:28;;;;;;;2.89;2.69;;;;;;;11.67;83.52;99316.00;2295301;70;20128;-84
2021/09/18 06:41:32;;;;;;;2.92;2.60;;;;;;;12.13;81.52;99318.16;2291611;70;20195;-84
2021/09/18 06:44:38;;;;;;;2.91;2.66;;;;;;;12.30;80.51;99319.69;2288350;70;20142;-83
2021/09/18 06:47:43;;;;;;;5.63;2.59;;;;;;;12.49;79.54;99322.91;2291998;70;20246;-85
2021/09/18 06:51:42;;;;;;;4.38;2.22;;;;;;;12.67;78.98;99327.88;2311451;70;20247;-84
2021/09/18 17:41:11;;;;;;;3.90;0.89;;;;;;;16.81;70.01;99057.34;2347121;68;20117;-83
2021/09/18 20:25:28;;;;;;;2.29;2.09;;;;;;;13.13;84.94;99084.75;2344143;68;20128;-83
2021/09/18 20:29:06;;;;;;;3.33;2.14;;;;;;;13.10;85.25;99084.78;2309709;68;20281;-80
2021/09/18 20:46:29;;;;;;;4.43;2.89;;;;;;;12.97;85.31;99073.75;2356979;68;20129;-84
2021/09/18 20:50:45;;;;;;;;;;;;;;;;;;;;;
